METAR Data
IDs: Format: Raw Decoded Include TAF

Data at: 0522 UTC 26 May 2022

ESSB 260450Z 20003KT CAVOK 11/07 Q1004